Time;durP1;ratioP1;P1;durP2;ratioP2;P2;SDS_P1;SDS_P2;PMS_P1;PMS_P2;Temp;Humidity;BMP_temperature;BMP_pressure;BME280_temperature;BME280_humidity;BME280_pressure;Samples;Min_cycle;Max_cycle;Signal;HPM_P1;HPM_P2
2021/12/01 00:02:02;;;;;;;1.30;0.30;;;21.00;36.80;;;;;;4976178;28;20399;-71
2021/12/01 00:04:28;;;;;;;0.60;0.20;;;21.00;36.80;;;;;;4971944;28;20412;-74
2021/12/01 00:06:53;;;;;;;0.40;0.20;;;21.00;36.80;;;;;;4970630;28;20757;-70
2021/12/01 00:09:19;;;;;;;1.80;0.30;;;21.00;36.80;;;;;;4974883;28;20444;-70
2021/12/01 00:11:45;;;;;;;0.50;0.30;;;21.00;36.80;;;;;;4974834;28;21605;-70
2021/12/01 00:14:10;;;;;;;0.30;0.22;;;21.00;36.80;;;;;;4970537;28;20423;-70
2021/12/01 00:16:36;;;;;;;0.30;0.13;;;21.00;36.80;;;;;;4970706;28;20489;-71
2021/12/01 00:19:02;;;;;;;0.50;0.30;;;21.00;36.80;;;;;;4905821;28;1872864;-70
2021/12/01 00:21:28;;;;;;;0.50;0.30;;;21.00;36.80;;;;;;4974240;28;20799;-71
2021/12/01 00:23:54;;;;;;;0.35;0.20;;;21.00;36.80;;;;;;4971619;28;20412;-73
2021/12/01 00:26:19;;;;;;;0.40;0.20;;;21.00;36.70;;;;;;4971517;28;20443;-72
2021/12/01 00:28:45;;;;;;;0.50;0.20;;;21.00;36.70;;;;;;4974471;28;20511;-70
2021/12/01 00:31:11;;;;;;;0.85;0.20;;;21.00;36.70;;;;;;4973355;28;20505;-71
2021/12/01 00:33:36;;;;;;;0.40;0.20;;;21.00;36.70;;;;;;4970847;28;20894;-70
2021/12/01 00:36:03;;;;;;;0.40;0.22;;;20.90;36.80;;;;;;4968068;28;20421;-69
2021/12/01 00:38:29;;;;;;;0.50;0.20;;;20.90;36.70;;;;;;4974222;28;20939;-71
2021/12/01 00:40:55;;;;;;;0.80;0.30;;;21.00;36.80;;;;;;4972839;28;20506;-69
2021/12/01 00:43:23;;;;;;;0.40;0.25;;;20.90;36.60;;;;;;4975945;28;20394;-70
2021/12/01 00:45:54;;;;;;;0.57;0.30;;;20.90;36.60;;;;;;4974386;28;20399;-69
2021/12/01 00:48:21;;;;;;;0.77;0.30;;;21.00;36.60;;;;;;4969246;28;20407;-70
2021/12/01 00:50:47;;;;;;;0.60;0.30;;;21.00;36.50;;;;;;4966831;28;20428;-69
2021/12/01 00:53:14;;;;;;;0.38;0.20;;;20.90;36.50;;;;;;4974284;28;20429;-69
2021/12/01 00:55:42;;;;;;;0.45;0.30;;;21.00;36.50;;;;;;4972048;28;20438;-73
2021/12/01 00:58:08;;;;;;;0.90;0.30;;;20.90;36.40;;;;;;4970286;28;20388;-76
2021/12/01 01:00:34;;;;;;;0.50;0.30;;;20.90;36.50;;;;;;4971809;28;20414;-70
2021/12/01 01:03:00;;;;;;;0.40;0.20;;;21.00;36.60;;;;;;4973742;28;20401;-70
2021/12/01 01:05:26;;;;;;;0.60;0.30;;;21.00;36.60;;;;;;4974675;28;20487;-70
2021/12/01 01:07:52;;;;;;;0.55;0.30;;;21.00;36.60;;;;;;4965297;28;20414;-69
2021/12/01 01:18:24;;;;;;;0.55;0.30;;;20.90;36.50;;;;;;4971305;28;20415;-70
2021/12/01 01:20:49;;;;;;;0.65;0.30;;;20.90;36.40;;;;;;4970988;28;20412;-69
2021/12/01 01:23:15;;;;;;;0.40;0.30;;;20.90;36.50;;;;;;4971493;28;20396;-70
2021/12/01 01:25:41;;;;;;;0.68;0.30;;;20.90;36.40;;;;;;4970154;28;20406;-69
2021/12/01 01:28:06;;;;;;;0.70;0.30;;;20.90;36.50;;;;;;4970612;28;20757;-69
2021/12/01 01:30:32;;;;;;;0.55;0.30;;;20.90;36.50;;;;;;4968136;28;20423;-70
2021/12/01 01:32:59;;;;;;;0.70;0.30;;;20.90;36.50;;;;;;4973541;28;20491;-69
2021/12/01 01:35:25;;;;;;;0.40;0.20;;;20.90;36.40;;;;;;4972136;28;20787;-70
2021/12/01 01:37:51;;;;;;;0.70;0.35;;;20.90;36.50;;;;;;4964717;28;20552;-69
2021/12/01 01:40:17;;;;;;;0.68;0.30;;;20.90;36.40;;;;;;4969568;28;20462;-70
2021/12/01 01:42:43;;;;;;;0.40;0.20;;;20.90;36.40;;;;;;4972398;28;20409;-71
2021/12/01 01:45:09;;;;;;;0.30;0.28;;;20.90;36.40;;;;;;4970551;28;20935;-70
2021/12/01 01:47:35;;;;;;;0.63;0.30;;;20.90;36.40;;;;;;4970753;28;20425;-70
2021/12/01 01:52:34;;;;;;;0.83;0.30;;;20.90;36.40;;;;;;4971781;28;20418;-69
2021/12/01 01:55:00;;;;;;;0.52;0.30;;;20.80;36.40;;;;;;4969143;28;20396;-69
2021/12/01 01:57:25;;;;;;;0.63;0.30;;;20.90;36.40;;;;;;4963058;28;20463;-70
2021/12/01 01:59:51;;;;;;;0.40;0.25;;;20.90;36.40;;;;;;4969752;28;20404;-70
2021/12/01 02:02:18;;;;;;;0.50;0.30;;;20.80;36.30;;;;;;4971143;28;20396;-69
2021/12/01 02:04:44;;;;;;;0.60;0.30;;;20.90;36.30;;;;;;4969190;28;20492;-70
2021/12/01 02:07:09;;;;;;;0.65;0.30;;;20.90;36.30;;;;;;4966412;28;20400;-69
2021/12/01 02:09:35;;;;;;;0.63;0.37;;;20.90;36.20;;;;;;4970759;28;20451;-75
2021/12/01 02:12:02;;;;;;;0.40;0.30;;;20.80;36.20;;;;;;4971648;28;20432;-73
2021/12/01 02:14:29;;;;;;;0.90;0.20;;;20.90;36.20;;;;;;4976056;28;20400;-76
2021/12/01 02:16:56;;;;;;;0.40;0.30;;;20.80;36.20;;;;;;4971965;28;20432;-73
2021/12/01 02:19:23;;;;;;;1.00;0.30;;;20.80;36.20;;;;;;4970419;28;20416;-73
2021/12/01 02:21:49;;;;;;;0.50;0.30;;;20.90;36.30;;;;;;4972963;28;20408;-71
2021/12/01 02:24:17;;;;;;;0.40;0.25;;;20.80;36.20;;;;;;4971133;28;20396;-73
2021/12/01 02:26:49;;;;;;;0.40;0.30;;;20.90;36.30;;;;;;4975349;28;20506;-71
2021/12/01 02:29:17;;;;;;;0.70;0.40;;;20.90;36.20;;;;;;4970625;28;20399;-73
2021/12/01 02:31:44;;;;;;;0.70;0.20;;;20.80;36.20;;;;;;4974241;28;20514;-76
2021/12/01 02:34:14;;;;;;;0.35;0.20;;;20.80;36.20;;;;;;4977149;28;20478;-73
2021/12/01 02:36:41;;;;;;;0.32;0.20;;;20.80;36.20;;;;;;4977387;28;20483;-73
2021/12/01 02:39:10;;;;;;;0.30;0.20;;;20.80;36.20;;;;;;4976182;28;20393;-70
2021/12/01 02:41:36;;;;;;;0.30;0.20;;;20.80;36.20;;;;;;4972653;28;20407;-71
2021/12/01 02:44:04;;;;;;;0.63;0.30;;;20.80;36.20;;;;;;4976342;28;20460;-75
2021/12/01 02:46:30;;;;;;;0.43;0.30;;;20.80;36.30;;;;;;4976971;28;20434;-74
2021/12/01 02:48:57;;;;;;;0.50;0.30;;;20.80;36.20;;;;;;4973853;28;20430;-78
2021/12/01 02:51:27;;;;;;;0.32;0.20;;;20.80;36.20;;;;;;4973282;28;20703;-76
2021/12/01 02:53:53;;;;;;;0.82;0.25;;;20.80;36.20;;;;;;4975788;28;20477;-77
2021/12/01 02:56:22;;;;;;;0.35;0.20;;;20.80;36.20;;;;;;4973805;28;20964;-71
2021/12/01 02:58:48;;;;;;;0.50;0.20;;;20.80;36.10;;;;;;4978039;28;20402;-74
2021/12/01 03:01:22;;;;;;;0.68;0.30;;;20.80;36.20;;;;;;4974224;28;20405;-71
2021/12/01 03:03:48;;;;;;;0.45;0.25;;;20.80;36.20;;;;;;4972335;28;20420;-73
2021/12/01 03:06:16;;;;;;;0.20;0.20;;;20.80;36.30;;;;;;4977752;28;20417;-74
2021/12/01 03:08:43;;;;;;;0.32;0.20;;;20.80;36.10;;;;;;4974961;28;20481;-70
2021/12/01 03:11:09;;;;;;;0.70;0.30;;;20.80;36.20;;;;;;4977501;28;20781;-68
2021/12/01 03:13:35;;;;;;;0.30;0.20;;;20.80;36.30;;;;;;4972999;28;20820;-71
2021/12/01 03:16:01;;;;;;;0.60;0.20;;;20.80;36.20;;;;;;4973839;28;20462;-72
2021/12/01 03:18:27;;;;;;;0.40;0.20;;;20.80;36.10;;;;;;4974165;28;20749;-73
2021/12/01 03:20:54;;;;;;;0.93;0.30;;;20.80;36.20;;;;;;4975582;28;20891;-70
2021/12/01 03:23:20;;;;;;;0.40;0.30;;;20.80;36.10;;;;;;4975122;28;20406;-74
2021/12/01 03:25:45;;;;;;;1.00;0.28;;;20.90;36.10;;;;;;4974685;28;20404;-74
2021/12/01 03:28:12;;;;;;;0.50;0.20;;;20.90;36.20;;;;;;4975040;28;20456;-73
2021/12/01 03:30:39;;;;;;;0.52;0.40;;;20.90;36.20;;;;;;4973201;28;20455;-71
2021/12/01 03:33:10;;;;;;;0.35;0.20;;;20.90;36.20;;;;;;4975114;28;20425;-68
2021/12/01 03:35:42;;;;;;;0.40;0.20;;;20.90;36.30;;;;;;4976672;28;20396;-74
2021/12/01 03:38:08;;;;;;;0.70;0.30;;;20.80;36.20;;;;;;4974176;28;20557;-70
2021/12/01 03:40:34;;;;;;;0.60;0.20;;;20.90;36.30;;;;;;4975769;28;20415;-74
2021/12/01 03:43:00;;;;;;;0.70;0.20;;;20.80;36.20;;;;;;4973255;28;21067;-75
2021/12/01 03:45:26;;;;;;;0.50;0.20;;;20.80;36.20;;;;;;4972497;28;20455;-72
2021/12/01 03:47:52;;;;;;;0.40;0.28;;;20.90;36.30;;;;;;4975143;28;20487;-72
2021/12/01 03:50:18;;;;;;;0.40;0.30;;;20.80;36.20;;;;;;4976140;28;20501;-72
2021/12/01 03:52:43;;;;;;;0.17;0.13;;;20.90;36.30;;;;;;4972604;28;20473;-70
2021/12/01 03:55:10;;;;;;;0.98;0.20;;;20.90;36.20;;;;;;4975267;28;20797;-73
2021/12/01 03:57:36;;;;;;;0.30;0.20;;;20.90;36.20;;;;;;4972705;28;20815;-73
2021/12/01 04:00:06;;;;;;;0.38;0.20;;;20.90;36.20;;;;;;4978293;28;20473;-71
2021/12/01 04:02:32;;;;;;;0.40;0.20;;;20.90;36.20;;;;;;4972781;28;20411;-73
2021/12/01 04:04:58;;;;;;;1.33;0.30;;;20.90;36.20;;;;;;4974309;28;21186;-72
2021/12/01 04:07:23;;;;;;;1.10;0.20;;;20.90;36.30;;;;;;4974846;28;20495;-72
2021/12/01 04:09:50;;;;;;;1.98;0.30;;;20.90;36.40;;;;;;4973337;28;20412;-69
2021/12/01 04:12:17;;;;;;;2.10;0.30;;;21.00;36.80;;;;;;4970432;28;20424;-69
2021/12/01 04:14:42;;;;;;;3.40;1.63;;;21.10;37.40;;;;;;4975524;28;20446;-72
2021/12/01 04:17:08;;;;;;;1.80;0.90;;;21.20;38.90;;;;;;4971609;28;20406;-74
2021/12/01 04:19:34;;;;;;;3.63;0.90;;;21.20;39.20;;;;;;4973849;28;20465;-75
2021/12/01 04:22:00;;;;;;;2.80;1.10;;;21.20;39.00;;;;;;4971732;28;20419;-73
2021/12/01 04:24:25;;;;;;;1.20;0.50;;;21.30;39.20;;;;;;4974978;28;20447;-73
2021/12/01 04:26:52;;;;;;;2.80;0.65;;;21.30;38.90;;;;;;4973243;28;20909;-74
2021/12/01 04:29:17;;;;;;;3.80;0.90;;;21.30;38.70;;;;;;4973245;28;20406;-74
2021/12/01 04:31:43;;;;;;;2.90;0.50;;;21.30;38.00;;;;;;4972525;28;20785;-73
2021/12/01 04:34:09;;;;;;;2.00;0.57;;;21.30;38.20;;;;;;4971355;28;20928;-71
2021/12/01 04:36:38;;;;;;;2.38;0.50;;;21.40;38.50;;;;;;4976004;28;20951;-74
2021/12/01 04:39:06;;;;;;;5.53;0.50;;;21.40;38.50;;;;;;4972925;28;20487;-75
2021/12/01 04:41:38;;;;;;;1.88;0.40;;;21.40;38.50;;;;;;4972568;28;20404;-77
2021/12/01 04:44:10;;;;;;;1.10;0.50;;;21.40;38.20;;;;;;4971210;28;20408;-73
2021/12/01 04:46:43;;;;;;;4.80;0.57;;;21.30;37.90;;;;;;4975350;28;20413;-75
2021/12/01 04:49:10;;;;;;;1.13;0.40;;;21.30;37.60;;;;;;4976044;28;20870;-71
2021/12/01 04:51:36;;;;;;;1.10;0.38;;;21.20;37.40;;;;;;4968317;28;20910;-71
2021/12/01 04:54:03;;;;;;;0.68;0.40;;;21.30;37.30;;;;;;4972400;28;20470;-75
2021/12/01 04:56:29;;;;;;;1.50;0.35;;;21.20;37.10;;;;;;4971603;28;20400;-76
2021/12/01 04:58:55;;;;;;;1.48;0.30;;;21.20;37.10;;;;;;4974707;28;20390;-76
2021/12/01 05:01:21;;;;;;;1.13;0.38;;;21.10;37.10;;;;;;4973906;28;20920;-76
2021/12/01 05:03:47;;;;;;;2.63;0.40;;;21.10;37.20;;;;;;4971656;28;20466;-71
2021/12/01 05:06:13;;;;;;;2.97;0.40;;;21.10;37.30;;;;;;4971553;28;20410;-73
2021/12/01 05:08:39;;;;;;;3.15;0.55;;;21.10;38.00;;;;;;4975011;28;20386;-77
2021/12/01 05:11:05;;;;;;;1.70;0.40;;;21.20;38.20;;;;;;4969412;28;20427;-75
2021/12/01 05:13:30;;;;;;;2.80;0.40;;;21.20;38.00;;;;;;4973198;28;21435;-69
2021/12/01 05:15:56;;;;;;;1.08;0.35;;;21.20;38.10;;;;;;4972730;28;21082;-71
2021/12/01 05:18:22;;;;;;;0.90;0.30;;;21.20;37.90;;;;;;4967580;28;20933;-69
2021/12/01 05:20:48;;;;;;;1.30;0.30;;;21.20;38.00;;;;;;4969776;28;20445;-69
2021/12/01 05:23:15;;;;;;;1.00;0.30;;;21.20;38.00;;;;;;4969809;28;20391;-70
2021/12/01 05:25:42;;;;;;;2.22;0.40;;;21.20;37.90;;;;;;4973393;28;20454;-70
2021/12/01 05:28:08;;;;;;;1.50;0.40;;;21.20;38.10;;;;;;4974662;28;20399;-71
2021/12/01 05:30:34;;;;;;;2.10;0.40;;;21.20;38.10;;;;;;4970636;28;20411;-70
2021/12/01 05:33:09;;;;;;;1.23;0.40;;;21.20;37.90;;;;;;4968033;28;20400;-69
2021/12/01 05:35:36;;;;;;;1.65;0.40;;;21.20;37.90;;;;;;4971355;28;20398;-70
2021/12/01 05:38:04;;;;;;;1.90;0.32;;;21.20;37.80;;;;;;4972400;28;20442;-70
2021/12/01 05:40:30;;;;;;;1.92;0.40;;;21.20;37.80;;;;;;4968434;28;20392;-69
2021/12/01 05:42:56;;;;;;;1.40;0.40;;;21.20;37.60;;;;;;4966699;28;20523;-69
2021/12/01 05:45:22;;;;;;;1.80;0.30;;;21.20;37.80;;;;;;4972617;28;21458;-70
2021/12/01 05:47:47;;;;;;;1.20;0.40;;;21.20;38.30;;;;;;4971698;28;20906;-75
2021/12/01 05:50:13;;;;;;;1.85;0.40;;;21.20;37.30;;;;;;4971394;28;20400;-73
2021/12/01 05:52:39;;;;;;;2.27;0.43;;;21.20;37.20;;;;;;4971424;28;20422;-71
2021/12/01 05:55:06;;;;;;;6.32;0.50;;;21.20;37.60;;;;;;4973084;28;20394;-70
2021/12/01 05:57:31;;;;;;;4.70;0.60;;;21.20;38.00;;;;;;4970155;28;20497;-72
2021/12/01 05:59:59;;;;;;;4.35;0.80;;;21.20;38.70;;;;;;4972569;28;20647;-75
2021/12/01 06:02:26;;;;;;;3.30;0.80;;;21.40;38.80;;;;;;4971149;28;20477;-71
2021/12/01 06:04:51;;;;;;;5.53;0.80;;;21.40;39.30;;;;;;4973317;28;20408;-72
2021/12/01 06:07:17;;;;;;;5.03;1.00;;;21.50;39.60;;;;;;4973538;28;20415;-69
2021/12/01 06:09:43;;;;;;;5.53;0.83;;;21.50;39.90;;;;;;4969056;28;20776;-69
2021/12/01 06:12:11;;;;;;;5.60;0.90;;;21.50;40.50;;;;;;4975243;28;21427;-77
2021/12/01 06:14:38;;;;;;;6.10;0.80;;;21.60;39.90;;;;;;4973278;28;20525;-69
2021/12/01 06:17:04;;;;;;;3.08;0.60;;;21.50;39.70;;;;;;4976376;28;20908;-76
2021/12/01 06:19:29;;;;;;;3.17;0.67;;;21.50;39.70;;;;;;4973165;28;20408;-69
2021/12/01 06:21:55;;;;;;;7.55;1.08;;;21.50;39.40;;;;;;4977863;28;20396;-74
2021/12/01 06:24:21;;;;;;;3.53;0.70;;;21.60;39.30;;;;;;4971163;28;20792;-72
2021/12/01 06:26:47;;;;;;;5.10;0.60;;;21.60;39.30;;;;;;4970668;28;20399;-76
2021/12/01 06:29:12;;;;;;;4.30;0.70;;;21.60;39.90;;;;;;4980850;28;20438;-73
2021/12/01 06:31:38;;;;;;;3.42;0.60;;;21.60;39.40;;;;;;4976891;28;20510;-70
2021/12/01 06:34:04;;;;;;;3.10;0.50;;;21.60;39.10;;;;;;4968952;28;20427;-73
2021/12/01 06:36:30;;;;;;;2.50;0.60;;;21.60;38.90;;;;;;4971602;28;20854;-75
2021/12/01 06:38:55;;;;;;;5.53;0.50;;;21.50;38.80;;;;;;4975338;28;20391;-75
2021/12/01 06:41:21;;;;;;;3.47;0.60;;;21.50;38.60;;;;;;4971703;28;21010;-72
2021/12/01 06:43:47;;;;;;;3.33;0.63;;;21.50;38.30;;;;;;4976688;28;20398;-73
2021/12/01 06:46:13;;;;;;;1.50;0.60;;;21.50;38.20;;;;;;4975317;28;20889;-68
2021/12/01 06:48:38;;;;;;;3.47;0.50;;;21.50;38.10;;;;;;4973382;28;20403;-69
2021/12/01 06:51:04;;;;;;;4.33;0.80;;;21.50;38.00;;;;;;4973458;28;20412;-75
2021/12/01 06:53:30;;;;;;;2.70;0.50;;;21.40;37.90;;;;;;4973605;28;20400;-69
2021/12/01 06:55:56;;;;;;;1.30;0.40;;;21.40;37.80;;;;;;4969602;28;20392;-74
2021/12/01 06:58:22;;;;;;;3.67;0.60;;;21.40;37.80;;;;;;4977000;28;20402;-73
2021/12/01 07:00:47;;;;;;;1.70;0.40;;;21.40;37.70;;;;;;4972364;28;20404;-74
2021/12/01 07:03:13;;;;;;;2.93;0.60;;;21.40;37.90;;;;;;4974303;28;20963;-72
2021/12/01 07:05:39;;;;;;;1.55;0.80;;;21.40;37.90;;;;;;4973090;28;20438;-76
2021/12/01 07:08:05;;;;;;;2.97;0.67;;;21.40;37.70;;;;;;4975708;28;20871;-70
2021/12/01 07:10:30;;;;;;;2.30;0.60;;;21.40;37.60;;;;;;4971925;28;20435;-71
2021/12/01 07:12:56;;;;;;;2.30;0.60;;;21.40;37.50;;;;;;4971671;28;20390;-72
2021/12/01 07:15:22;;;;;;;2.58;0.50;;;21.30;37.40;;;;;;4974019;28;20427;-68
2021/12/01 07:17:48;;;;;;;1.07;0.40;;;21.30;37.30;;;;;;4972637;28;20765;-70
2021/12/01 07:20:14;;;;;;;2.17;0.60;;;21.30;37.20;;;;;;4980175;28;20605;-72
2021/12/01 07:22:42;;;;;;;1.52;0.80;;;21.30;37.20;;;;;;4974602;28;20787;-77
2021/12/01 07:25:08;;;;;;;2.17;0.80;;;21.30;37.20;;;;;;4977713;28;20407;-74
2021/12/01 07:27:33;;;;;;;1.08;0.50;;;21.30;37.10;;;;;;4976467;28;20408;-75
2021/12/01 07:29:59;;;;;;;2.25;0.50;;;21.30;37.10;;;;;;4977925;28;20429;-73
2021/12/01 07:32:25;;;;;;;1.10;0.60;;;21.30;37.60;;;;;;4973277;28;20815;-69
2021/12/01 07:34:51;;;;;;;1.30;0.53;;;21.30;37.00;;;;;;4972890;28;20388;-71
2021/12/01 07:37:17;;;;;;;2.08;0.70;;;21.30;36.90;;;;;;4976089;28;20403;-69
2021/12/01 07:39:45;;;;;;;1.25;0.60;;;21.30;36.90;;;;;;4976545;28;20764;-70
2021/12/01 07:42:13;;;;;;;1.60;0.60;;;21.20;36.80;;;;;;4973922;28;20400;-70
2021/12/01 07:44:39;;;;;;;2.47;0.80;;;21.20;36.80;;;;;;4979997;28;20395;-72
2021/12/01 07:47:05;;;;;;;2.50;0.70;;;21.20;36.80;;;;;;4973777;28;20596;-72
2021/12/01 07:49:32;;;;;;;0.90;0.50;;;21.20;36.80;;;;;;4970379;28;20424;-73
2021/12/01 07:51:58;;;;;;;2.33;0.82;;;21.20;36.70;;;;;;4977779;28;20445;-72
2021/12/01 07:54:24;;;;;;;1.05;0.70;;;21.20;36.70;;;;;;4973809;28;20402;-75
2021/12/01 07:56:50;;;;;;;1.63;0.80;;;21.20;36.70;;;;;;4978210;28;20409;-73
2021/12/01 07:59:16;;;;;;;1.20;0.70;;;21.20;36.70;;;;;;4977502;28;20388;-76
2021/12/01 08:01:45;;;;;;;1.55;0.68;;;21.20;36.60;;;;;;4977270;28;20756;-75
2021/12/01 08:04:11;;;;;;;0.85;0.50;;;21.20;36.60;;;;;;4978878;28;20404;-76
2021/12/01 08:06:40;;;;;;;1.52;0.70;;;21.20;36.60;;;;;;4979651;28;20396;-76
2021/12/01 08:09:07;;;;;;;1.40;0.60;;;21.20;36.50;;;;;;4980886;28;20905;-76
2021/12/01 08:11:33;;;;;;;1.30;0.65;;;21.20;36.60;;;;;;4975626;28;20800;-76
2021/12/01 08:14:01;;;;;;;1.25;0.60;;;21.20;36.50;;;;;;4976473;28;20454;-75
2021/12/01 08:16:28;;;;;;;1.40;0.90;;;21.20;36.50;;;;;;4977311;28;20446;-69
2021/12/01 08:18:55;;;;;;;1.70;0.70;;;21.10;36.40;;;;;;4975329;28;20412;-75
2021/12/01 08:21:24;;;;;;;1.17;0.70;;;21.10;36.40;;;;;;4974920;28;20410;-69
2021/12/01 08:23:52;;;;;;;1.45;0.70;;;21.10;36.30;;;;;;4979589;28;20426;-72
2021/12/01 08:26:19;;;;;;;1.05;0.70;;;21.10;36.30;;;;;;4976144;28;20408;-75
2021/12/01 08:28:46;;;;;;;1.30;0.77;;;21.10;36.30;;;;;;4973741;28;20400;-69
2021/12/01 08:31:13;;;;;;;1.60;0.80;;;21.10;36.30;;;;;;4977592;28;20486;-72
2021/12/01 08:33:39;;;;;;;0.93;0.60;;;21.10;36.30;;;;;;4973309;28;20510;-69
2021/12/01 08:36:05;;;;;;;2.35;0.60;;;21.10;36.30;;;;;;4978613;28;20771;-69
2021/12/01 08:38:31;;;;;;;1.25;0.70;;;21.10;36.30;;;;;;4973050;28;20993;-75
2021/12/01 08:40:58;;;;;;;1.10;0.60;;;21.10;36.20;;;;;;4973330;28;20412;-69
2021/12/01 08:43:23;;;;;;;0.90;0.65;;;21.10;36.20;;;;;;4973884;28;20407;-71
2021/12/01 08:45:49;;;;;;;1.05;0.60;;;21.10;36.20;;;;;;4974527;28;20398;-72
2021/12/01 08:48:15;;;;;;;1.00;0.60;;;21.10;36.20;;;;;;4976701;28;20455;-69
2021/12/01 08:50:41;;;;;;;1.55;0.80;;;21.10;36.20;;;;;;4976586;28;20447;-69
2021/12/01 08:53:07;;;;;;;1.20;0.70;;;21.10;36.20;;;;;;4976031;28;20403;-71
2021/12/01 08:55:33;;;;;;;1.10;0.63;;;21.10;36.10;;;;;;4976450;28;20403;-70
2021/12/01 08:57:59;;;;;;;0.97;0.50;;;21.10;36.10;;;;;;4975214;28;20404;-70
2021/12/01 09:00:24;;;;;;;1.40;0.60;;;21.10;36.00;;;;;;4975908;28;20422;-74
2021/12/01 09:02:50;;;;;;;1.35;0.65;;;21.10;36.10;;;;;;4973547;28;20761;-76
2021/12/01 09:05:16;;;;;;;1.00;0.60;;;21.10;36.00;;;;;;4974980;28;20487;-76
2021/12/01 09:07:41;;;;;;;0.90;0.60;;;21.10;36.00;;;;;;4972692;28;20490;-72
2021/12/01 09:10:07;;;;;;;1.30;0.67;;;21.20;36.00;;;;;;4971837;28;20459;-68
2021/12/01 09:12:34;;;;;;;1.55;0.70;;;21.20;35.90;;;;;;4975209;28;20581;-68
2021/12/01 09:14:59;;;;;;;2.40;0.68;;;21.20;35.90;;;;;;4971847;28;20472;-68
2021/12/01 09:17:26;;;;;;;1.60;0.68;;;21.20;36.00;;;;;;4970333;28;20408;-68
2021/12/01 09:19:52;;;;;;;1.85;0.70;;;21.10;36.60;;;;;;4973970;28;20438;-70
2021/12/01 09:22:19;;;;;;;2.30;0.90;;;21.10;36.10;;;;;;4970899;28;20417;-71
2021/12/01 09:24:46;;;;;;;1.60;0.75;;;21.10;36.20;;;;;;4972452;28;20872;-73
2021/12/01 09:27:13;;;;;;;2.00;0.90;;;21.10;36.20;;;;;;4969612;28;20403;-71
2021/12/01 09:29:39;;;;;;;1.98;0.77;;;21.10;36.20;;;;;;4971785;28;20399;-69
2021/12/01 09:32:05;;;;;;;1.50;0.70;;;21.10;36.10;;;;;;4968372;28;20422;-70
2021/12/01 09:34:31;;;;;;;1.50;0.70;;;21.10;36.10;;;;;;4970675;28;20388;-69
2021/12/01 09:36:57;;;;;;;2.20;0.70;;;21.00;36.10;;;;;;4973302;28;20460;-67
2021/12/01 09:39:24;;;;;;;2.10;0.80;;;21.00;36.00;;;;;;4971262;28;20391;-70
2021/12/01 09:41:51;;;;;;;0.90;0.60;;;21.10;36.10;;;;;;4974331;28;20402;-71
2021/12/01 09:44:18;;;;;;;1.38;0.80;;;21.10;36.10;;;;;;4976535;28;21377;-69
2021/12/01 09:46:44;;;;;;;2.38;0.60;;;21.10;36.10;;;;;;4975059;28;20792;-68
2021/12/01 09:49:10;;;;;;;1.17;0.70;;;21.10;36.00;;;;;;4973847;28;20886;-69
2021/12/01 09:51:36;;;;;;;1.88;0.80;;;21.10;36.00;;;;;;4973644;28;20917;-69
2021/12/01 09:54:03;;;;;;;1.00;0.70;;;21.10;35.80;;;;;;4980712;28;20429;-70
2021/12/01 09:56:30;;;;;;;1.40;0.70;;;21.00;36.00;;;;;;4973848;28;20414;-71
2021/12/01 09:58:56;;;;;;;1.33;0.70;;;21.00;36.00;;;;;;4978737;28;20462;-71
2021/12/01 10:01:24;;;;;;;1.20;0.75;;;21.00;36.00;;;;;;4974026;28;20434;-73
2021/12/01 10:03:51;;;;;;;1.55;0.60;;;21.00;36.00;;;;;;4975281;28;20392;-71
2021/12/01 10:06:19;;;;;;;1.37;0.90;;;21.00;36.00;;;;;;4979434;28;20485;-70
2021/12/01 10:08:56;;;;;;;2.03;0.70;;;21.00;36.00;;;;;;4976301;28;20797;-75
2021/12/01 10:11:29;;;;;;;1.47;0.90;;;21.00;36.00;;;;;;4976768;28;20418;-72
2021/12/01 10:14:07;;;;;;;1.30;0.80;;;21.10;36.00;;;;;;4974972;28;20407;-70
2021/12/01 10:16:41;;;;;;;1.00;0.70;;;21.10;35.90;;;;;;4977840;28;20616;-69
2021/12/01 10:19:14;;;;;;;1.00;0.77;;;21.10;35.90;;;;;;4978300;28;20425;-68
2021/12/01 10:21:43;;;;;;;1.00;0.70;;;21.10;35.90;;;;;;4972626;28;20396;-70
2021/12/01 10:24:15;;;;;;;1.60;0.80;;;21.10;36.50;;;;;;4975970;28;20439;-68
2021/12/01 10:26:47;;;;;;;1.67;0.80;;;21.10;36.50;;;;;;4977417;28;20453;-69
2021/12/01 10:29:16;;;;;;;1.13;0.80;;;21.20;35.90;;;;;;4976494;28;20400;-75
2021/12/01 10:32:02;;;;;;;3.08;1.63;;;21.20;35.70;;;;;;4976154;28;20426;-75
2021/12/01 10:34:32;;;;;;;1.63;0.93;;;21.20;35.80;;;;;;4969117;28;20426;-71
2021/12/01 10:37:31;;;;;;;2.30;1.10;;;21.30;35.90;;;;;;4973889;28;20734;-71
2021/12/01 10:40:08;;;;;;;2.03;1.30;;;21.40;35.80;;;;;;4972979;28;20396;-72
2021/12/01 10:42:49;;;;;;;2.20;1.23;;;21.30;35.90;;;;;;4976061;28;20925;-71
2021/12/01 10:45:17;;;;;;;1.75;1.02;;;21.30;36.00;;;;;;4972789;28;20400;-70
2021/12/01 10:47:44;;;;;;;1.33;0.95;;;21.40;35.90;;;;;;4973575;28;20418;-70
2021/12/01 10:50:16;;;;;;;2.15;1.17;;;21.40;36.00;;;;;;4970304;28;20399;-70
2021/12/01 10:52:50;;;;;;;1.73;1.10;;;21.40;35.90;;;;;;4972569;28;20404;-69
2021/12/01 10:55:20;;;;;;;1.55;1.00;;;21.40;35.90;;;;;;4974605;28;20387;-70
2021/12/01 10:57:49;;;;;;;1.60;1.00;;;21.40;35.90;;;;;;4974927;28;20458;-71
2021/12/01 11:00:19;;;;;;;2.00;1.00;;;21.40;35.90;;;;;;4974478;28;20482;-70
2021/12/01 11:02:45;;;;;;;1.90;1.10;;;21.40;35.90;;;;;;4969300;28;20410;-70
2021/12/01 11:05:24;;;;;;;1.55;1.10;;;21.50;35.90;;;;;;4976694;28;20420;-72
2021/12/01 11:07:49;;;;;;;1.60;1.00;;;21.50;35.80;;;;;;4972468;28;21271;-72
2021/12/01 11:10:20;;;;;;;1.58;1.00;;;21.60;35.70;;;;;;4992104;28;20522;-74
2021/12/01 11:13:03;;;;;;;1.77;1.00;;;21.60;35.70;;;;;;4971293;28;20434;-70
2021/12/01 11:15:35;;;;;;;1.73;1.00;;;21.60;35.70;;;;;;4972719;28;20388;-70
2021/12/01 11:18:02;;;;;;;1.77;1.00;;;21.60;35.70;;;;;;4974067;28;20391;-71
2021/12/01 11:20:37;;;;;;;1.70;1.10;;;21.60;35.70;;;;;;4971584;28;20404;-70
2021/12/01 11:23:20;;;;;;;1.48;0.95;;;21.60;35.60;;;;;;4973190;28;21023;-71
2021/12/01 11:25:50;;;;;;;1.60;1.07;;;21.60;35.60;;;;;;4971378;28;20396;-69
2021/12/01 11:28:18;;;;;;;2.03;1.10;;;21.60;35.50;;;;;;4968989;28;20400;-70
2021/12/01 11:30:46;;;;;;;1.38;0.90;;;21.60;35.50;;;;;;4975669;28;20518;-69
2021/12/01 11:33:16;;;;;;;1.70;0.80;;;21.70;35.50;;;;;;4969311;28;20958;-69
2021/12/01 11:35:43;;;;;;;1.63;0.88;;;21.70;35.50;;;;;;4970870;28;20475;-70
2021/12/01 11:38:11;;;;;;;1.70;1.00;;;21.60;35.40;;;;;;4975113;28;20394;-69
2021/12/01 11:40:37;;;;;;;1.50;1.08;;;21.70;35.40;;;;;;4971685;28;20410;-71
2021/12/01 11:43:04;;;;;;;1.50;0.90;;;21.70;35.50;;;;;;4967588;28;20980;-70
2021/12/01 11:45:30;;;;;;;1.88;0.90;;;21.60;35.60;;;;;;4968641;28;20444;-70
2021/12/01 11:47:56;;;;;;;1.50;1.00;;;21.60;35.70;;;;;;4974644;28;20430;-70
2021/12/01 11:50:32;;;;;;;1.30;0.90;;;21.60;35.60;;;;;;4969482;28;20886;-69
2021/12/01 11:53:22;;;;;;;1.40;0.90;;;21.60;35.60;;;;;;4973276;28;20955;-70
2021/12/01 11:56:00;;;;;;;1.13;0.80;;;21.60;35.60;;;;;;4969753;28;20473;-69
2021/12/01 11:59:01;;;;;;;1.77;1.00;;;21.70;35.50;;;;;;4968364;28;20526;-71
2021/12/01 12:01:29;;;;;;;1.38;0.82;;;21.70;35.60;;;;;;4975593;28;20390;-70
2021/12/01 12:04:01;;;;;;;1.70;0.90;;;21.70;35.50;;;;;;4970821;28;20472;-71
2021/12/01 12:06:32;;;;;;;1.30;0.80;;;21.70;35.50;;;;;;4973070;28;20400;-72
2021/12/01 12:08:59;;;;;;;1.48;0.90;;;21.70;35.50;;;;;;4968886;28;20411;-70
2021/12/01 12:11:44;;;;;;;1.73;0.90;;;21.80;35.50;;;;;;4973971;28;21088;-70
2021/12/01 12:14:18;;;;;;;1.20;0.82;;;21.80;35.40;;;;;;4969917;28;20467;-69
2021/12/01 12:17:07;;;;;;;1.33;0.82;;;21.80;35.40;;;;;;4973999;28;20414;-70
2021/12/01 12:20:21;;;;;;;1.15;0.77;;;21.80;35.30;;;;;;4972620;28;20425;-69
2021/12/01 12:22:47;;;;;;;1.40;0.70;;;21.80;35.40;;;;;;4967399;28;20444;-70
2021/12/01 12:25:38;;;;;;;1.60;0.90;;;21.80;35.40;;;;;;4971116;28;20447;-70
2021/12/01 12:28:33;;;;;;;1.90;0.80;;;21.80;35.70;;;;;;4969189;28;20838;-70
2021/12/01 12:31:03;;;;;;;2.15;0.90;;;21.80;35.80;;;;;;4946323;28;20443;-70
2021/12/01 12:33:32;;;;;;;2.03;1.10;;;21.90;35.90;;;;;;4969463;28;20479;-69
2021/12/01 12:36:04;;;;;;;2.25;1.10;;;21.90;36.00;;;;;;4971176;28;20494;-70
2021/12/01 12:38:30;;;;;;;2.75;1.17;;;22.00;36.20;;;;;;4967154;28;20449;-70
2021/12/01 12:41:07;;;;;;;2.72;1.10;;;22.00;37.00;;;;;;4969073;28;20418;-70
2021/12/01 12:43:36;;;;;;;1.52;1.00;;;22.00;36.40;;;;;;4967851;28;20386;-69
2021/12/01 12:46:01;;;;;;;1.60;1.10;;;22.00;36.20;;;;;;4970213;28;20407;-69
2021/12/01 12:48:33;;;;;;;2.25;1.10;;;22.00;36.30;;;;;;4969435;28;20443;-70
2021/12/01 12:51:12;;;;;;;2.42;1.08;;;21.90;36.10;;;;;;4967297;28;20479;-69
2021/12/01 12:54:10;;;;;;;2.20;0.82;;;22.00;36.00;;;;;;4967715;28;20466;-70
2021/12/01 12:56:37;;;;;;;1.77;0.90;;;22.00;36.00;;;;;;4963551;28;20407;-69
2021/12/01 12:59:23;;;;;;;4.65;1.10;;;22.00;36.00;;;;;;4973259;28;21450;-69
2021/12/01 13:01:55;;;;;;;6.35;1.10;;;22.10;36.00;;;;;;4973284;28;20400;-75
2021/12/01 13:04:51;;;;;;;4.03;0.95;;;22.10;36.30;;;;;;4967181;28;20412;-69